Detall de PIREP

Printer-friendly versionPDF version

[2016/09/09 15:46:00]
Flight IATA:CT3106
Pilot Number:012
Company ICAO:CAT
Aircraft Type:A320/E
PAX:150
Departing Airport: LIEA
Destination Airport: LEVC
Alternate Airport:LEPA
Online: VATSIM
Route:SUPUX UZ924 RIPAL UM603 CDP UN733 ARGOR
Flight Level:F330
No Slew and time accel
No pause
Crash detect
Detect pilot in Cockpit between each 30 and 45 minutes
15:46 Zero fuel Weight: 120283 Lbs, Fuel Weight: 15656 Lbs
15:46 VATSIM:LIEA 091520Z 29007KT 250V330 9999 FEW030 27/20 Q1013
15:46 VATSIM:LEVC 091530Z 12011KT 9999 FEW035 29/20 Q1013 NOSIG
15:46 PROVA CATPLANES NOU
15:47 Parking Brakes off
15:52 Take-off
15:52 Take off Weight: 135152 Lbs
15:52 Wind: 294º @ 007 Knots Heading: 207º
15:52 POS N40º 37´ 34´´ E008º 17´ 13´´
15:52 Flaps:3 at 176 Knots
15:52 Gear Up: 177 Knots
15:52 Flaps:2 at 189 Knots
15:52 Flaps:0 at 200 Knots
16:06 TOC
16:06 Fuel Weight: 11311 Lb
16:07 Wind:301º@026 Knots Heading: 261º Ground Speed: 448 Knots Altitude 32939 ft
16:22 Wind:270º@033 Knots Heading: 263º Ground Speed: 433 Knots Altitude 33054 ft
16:37 Wind:268º@037 Knots Heading: 262º Ground Speed: 429 Knots Altitude 33047 ft
16:38 TOD
16:38 Fuel Weight: 8248 Lb
16:52 Wind:238º@009 Knots Heading: 264º Ground Speed: 269 Knots Altitude 9865 ft
16:59 Flaps:1 at 208 Knots
16:59 Flaps:3 at 208 Knots
17:01 Gear Down: 174 Knots
17:01 Flaps:4 at 169 Knots
17:03 Flaps:5 at 152 Knots
17:06 TouchDown:Rate -230 ft/min Speed: 131 Knots
17:06 Flaps:4 at 53 Knots
17:06 Flaps:0 at 46 Knots
17:06 VATSIM:LEVC 091630Z 11008KT 080V160 9999 FEW035 29/21 Q1013 NOSIG
17:06 Land
17:06 Wind:114º@008 Knots
17:06 Heading: 115º
17:06 Flight Duration: 01:14
17:06 Landing Weight: 126251 Lbs
17:06 POS N39º 29´ 14´´ W000º 28´ 35´´
17:08 Parking brakes on
17:08 Block to Block Duration: 01:21
17:08 Final Fuel: 5740 Lbls
17:08 Spent Fuel: 9916 Lbls
17:08 Flight Length: 446 NM
17:08 TOD Land Length: 127 NM

Exportar CSV

Powered by Drupal - Modified by Danger4k